sensor_id;sensor_type;location;lat;lon;timestamp;P1;durP1;ratioP1;P2;durP2;ratioP2
19919;SDS011;10122;50.074;19.920;2023-03-01T00:00:39;61.70;;;27.03;;
19919;SDS011;10122;50.074;19.920;2023-03-01T00:03:04;59.63;;;26.47;;
19919;SDS011;10122;50.074;19.920;2023-03-01T00:05:30;59.73;;;25.83;;
19919;SDS011;10122;50.074;19.920;2023-03-01T00:07:57;56.87;;;25.67;;
19919;SDS011;10122;50.074;19.920;2023-03-01T00:10:22;56.60;;;26.67;;
19919;SDS011;10122;50.074;19.920;2023-03-01T00:12:48;54.63;;;25.70;;
19919;SDS011;10122;50.074;19.920;2023-03-01T00:15:14;57.20;;;25.80;;
19919;SDS011;10122;50.074;19.920;2023-03-01T00:17:39;56.13;;;25.60;;
19919;SDS011;10122;50.074;19.920;2023-03-01T00:20:05;54.13;;;25.47;;
19919;SDS011;10122;50.074;19.920;2023-03-01T00:22:35;52.67;;;25.00;;
19919;SDS011;10122;50.074;19.920;2023-03-01T00:25:02;58.83;;;25.97;;
19919;SDS011;10122;50.074;19.920;2023-03-01T00:27:28;60.23;;;27.13;;
19919;SDS011;10122;50.074;19.920;2023-03-01T00:29:54;55.27;;;25.93;;
19919;SDS011;10122;50.074;19.920;2023-03-01T00:32:19;58.30;;;26.17;;
19919;SDS011;10122;50.074;19.920;2023-03-01T00:34:45;59.57;;;25.93;;
19919;SDS011;10122;50.074;19.920;2023-03-01T00:37:19;55.60;;;26.23;;
19919;SDS011;10122;50.074;19.920;2023-03-01T00:39:46;58.23;;;26.63;;
19919;SDS011;10122;50.074;19.920;2023-03-01T00:42:11;57.17;;;26.27;;
19919;SDS011;10122;50.074;19.920;2023-03-01T00:44:37;61.10;;;26.70;;
19919;SDS011;10122;50.074;19.920;2023-03-01T00:47:03;55.83;;;25.57;;
19919;SDS011;10122;50.074;19.920;2023-03-01T00:49:29;56.20;;;25.50;;
19919;SDS011;10122;50.074;19.920;2023-03-01T00:51:54;56.37;;;26.20;;
19919;SDS011;10122;50.074;19.920;2023-03-01T00:54:20;59.43;;;26.23;;
19919;SDS011;10122;50.074;19.920;2023-03-01T00:56:46;59.47;;;26.00;;
19919;SDS011;10122;50.074;19.920;2023-03-01T00:59:11;56.63;;;25.80;;
19919;SDS011;10122;50.074;19.920;2023-03-01T01:01:37;56.37;;;24.97;;
19919;SDS011;10122;50.074;19.920;2023-03-01T01:04:04;57.47;;;25.73;;
19919;SDS011;10122;50.074;19.920;2023-03-01T01:06:36;53.73;;;25.00;;
19919;SDS011;10122;50.074;19.920;2023-03-01T01:09:05;57.80;;;26.47;;
19919;SDS011;10122;50.074;19.920;2023-03-01T01:11:31;53.10;;;25.17;;
19919;SDS011;10122;50.074;19.920;2023-03-01T01:13:58;55.03;;;25.17;;
19919;SDS011;10122;50.074;19.920;2023-03-01T01:16:24;55.07;;;25.40;;
19919;SDS011;10122;50.074;19.920;2023-03-01T01:18:51;54.67;;;23.90;;
19919;SDS011;10122;50.074;19.920;2023-03-01T01:21:18;55.23;;;24.40;;
19919;SDS011;10122;50.074;19.920;2023-03-01T01:23:46;60.13;;;25.53;;
19919;SDS011;10122;50.074;19.920;2023-03-01T01:26:14;56.27;;;25.53;;
19919;SDS011;10122;50.074;19.920;2023-03-01T01:28:43;52.90;;;24.77;;
19919;SDS011;10122;50.074;19.920;2023-03-01T01:31:09;53.17;;;25.00;;
19919;SDS011;10122;50.074;19.920;2023-03-01T01:33:35;56.17;;;24.97;;
19919;SDS011;10122;50.074;19.920;2023-03-01T01:36:02;57.87;;;25.83;;
19919;SDS011;10122;50.074;19.920;2023-03-01T01:38:29;54.90;;;24.93;;
19919;SDS011;10122;50.074;19.920;2023-03-01T01:40:54;61.10;;;26.93;;
19919;SDS011;10122;50.074;19.920;2023-03-01T01:43:25;55.23;;;25.83;;
19919;SDS011;10122;50.074;19.920;2023-03-01T01:45:54;61.17;;;26.33;;
19919;SDS011;10122;50.074;19.920;2023-03-01T01:48:24;59.47;;;25.57;;
19919;SDS011;10122;50.074;19.920;2023-03-01T01:51:05;57.00;;;24.33;;
19919;SDS011;10122;50.074;19.920;2023-03-01T01:53:38;60.10;;;25.93;;
19919;SDS011;10122;50.074;19.920;2023-03-01T01:56:05;53.97;;;24.63;;
19919;SDS011;10122;50.074;19.920;2023-03-01T01:58:33;53.03;;;24.40;;
19919;SDS011;10122;50.074;19.920;2023-03-01T02:00:58;56.53;;;25.33;;
19919;SDS011;10122;50.074;19.920;2023-03-01T02:03:27;51.03;;;24.77;;
19919;SDS011;10122;50.074;19.920;2023-03-01T02:09:11;53.53;;;24.47;;
19919;SDS011;10122;50.074;19.920;2023-03-01T02:11:39;53.90;;;25.03;;
19919;SDS011;10122;50.074;19.920;2023-03-01T02:14:05;50.30;;;23.80;;
19919;SDS011;10122;50.074;19.920;2023-03-01T02:16:31;54.53;;;24.63;;
19919;SDS011;10122;50.074;19.920;2023-03-01T02:18:57;52.90;;;24.17;;
19919;SDS011;10122;50.074;19.920;2023-03-01T02:21:33;54.10;;;23.23;;
19919;SDS011;10122;50.074;19.920;2023-03-01T02:26:48;53.87;;;24.23;;
19919;SDS011;10122;50.074;19.920;2023-03-01T02:29:16;55.37;;;23.60;;
19919;SDS011;10122;50.074;19.920;2023-03-01T02:31:42;54.83;;;23.67;;
19919;SDS011;10122;50.074;19.920;2023-03-01T02:34:09;54.33;;;23.90;;
19919;SDS011;10122;50.074;19.920;2023-03-01T02:36:43;53.83;;;23.80;;
19919;SDS011;10122;50.074;19.920;2023-03-01T02:39:19;59.03;;;25.37;;
19919;SDS011;10122;50.074;19.920;2023-03-01T02:41:52;53.40;;;24.93;;
19919;SDS011;10122;50.074;19.920;2023-03-01T02:44:20;60.43;;;26.07;;
19919;SDS011;10122;50.074;19.920;2023-03-01T02:46:49;62.63;;;27.47;;
19919;SDS011;10122;50.074;19.920;2023-03-01T02:49:22;61.07;;;26.90;;
19919;SDS011;10122;50.074;19.920;2023-03-01T02:55:07;65.33;;;28.33;;
19919;SDS011;10122;50.074;19.920;2023-03-01T02:57:28;61.63;;;28.30;;
19919;SDS011;10122;50.074;19.920;2023-03-01T02:59:56;63.57;;;28.43;;
19919;SDS011;10122;50.074;19.920;2023-03-01T03:02:29;66.00;;;29.13;;
19919;SDS011;10122;50.074;19.920;2023-03-01T03:05:02;64.97;;;28.83;;
19919;SDS011;10122;50.074;19.920;2023-03-01T03:07:28;70.33;;;29.60;;
19919;SDS011;10122;50.074;19.920;2023-03-01T03:09:54;67.90;;;29.80;;
19919;SDS011;10122;50.074;19.920;2023-03-01T03:12:19;67.80;;;29.27;;
19919;SDS011;10122;50.074;19.920;2023-03-01T03:14:45;61.13;;;27.27;;
19919;SDS011;10122;50.074;19.920;2023-03-01T03:17:11;61.63;;;27.07;;
19919;SDS011;10122;50.074;19.920;2023-03-01T03:19:36;63.77;;;27.03;;
19919;SDS011;10122;50.074;19.920;2023-03-01T03:22:02;63.27;;;26.70;;
19919;SDS011;10122;50.074;19.920;2023-03-01T03:24:28;60.90;;;26.43;;
19919;SDS011;10122;50.074;19.920;2023-03-01T03:27:02;62.83;;;27.00;;
19919;SDS011;10122;50.074;19.920;2023-03-01T03:29:28;64.57;;;28.37;;
19919;SDS011;10122;50.074;19.920;2023-03-01T03:31:54;63.90;;;26.87;;
19919;SDS011;10122;50.074;19.920;2023-03-01T03:34:20;60.67;;;26.83;;
19919;SDS011;10122;50.074;19.920;2023-03-01T03:36:46;59.07;;;27.13;;
19919;SDS011;10122;50.074;19.920;2023-03-01T03:39:11;63.10;;;27.47;;
19919;SDS011;10122;50.074;19.920;2023-03-01T03:41:37;63.53;;;27.90;;
19919;SDS011;10122;50.074;19.920;2023-03-01T03:44:03;61.63;;;27.10;;
19919;SDS011;10122;50.074;19.920;2023-03-01T03:46:28;66.93;;;27.90;;
19919;SDS011;10122;50.074;19.920;2023-03-01T03:48:55;64.03;;;28.07;;
19919;SDS011;10122;50.074;19.920;2023-03-01T03:51:21;65.73;;;27.97;;
19919;SDS011;10122;50.074;19.920;2023-03-01T03:53:47;64.90;;;27.10;;
19919;SDS011;10122;50.074;19.920;2023-03-01T03:56:13;60.93;;;26.63;;
19919;SDS011;10122;50.074;19.920;2023-03-01T03:58:39;71.73;;;30.07;;
19919;SDS011;10122;50.074;19.920;2023-03-01T04:01:05;72.13;;;30.53;;
19919;SDS011;10122;50.074;19.920;2023-03-01T04:03:31;69.17;;;29.60;;
19919;SDS011;10122;50.074;19.920;2023-03-01T04:06:00;67.53;;;28.73;;
19919;SDS011;10122;50.074;19.920;2023-03-01T04:08:26;69.60;;;29.53;;
19919;SDS011;10122;50.074;19.920;2023-03-01T04:10:56;67.47;;;29.27;;
19919;SDS011;10122;50.074;19.920;2023-03-01T04:13:46;63.07;;;28.37;;
19919;SDS011;10122;50.074;19.920;2023-03-01T04:16:12;68.67;;;28.97;;
19919;SDS011;10122;50.074;19.920;2023-03-01T04:18:38;64.03;;;27.10;;
19919;SDS011;10122;50.074;19.920;2023-03-01T04:21:03;64.83;;;27.50;;
19919;SDS011;10122;50.074;19.920;2023-03-01T04:23:30;63.93;;;27.57;;
19919;SDS011;10122;50.074;19.920;2023-03-01T04:25:56;60.87;;;26.73;;
19919;SDS011;10122;50.074;19.920;2023-03-01T04:28:24;63.47;;;27.23;;
19919;SDS011;10122;50.074;19.920;2023-03-01T04:31:09;63.40;;;27.97;;
19919;SDS011;10122;50.074;19.920;2023-03-01T04:33:46;62.27;;;26.87;;
19919;SDS011;10122;50.074;19.920;2023-03-01T04:36:17;61.97;;;26.93;;
19919;SDS011;10122;50.074;19.920;2023-03-01T04:38:44;62.60;;;26.77;;
19919;SDS011;10122;50.074;19.920;2023-03-01T04:41:12;67.27;;;27.17;;
19919;SDS011;10122;50.074;19.920;2023-03-01T04:43:39;57.70;;;26.13;;
19919;SDS011;10122;50.074;19.920;2023-03-01T04:46:07;58.50;;;26.07;;
19919;SDS011;10122;50.074;19.920;2023-03-01T04:48:35;59.60;;;27.03;;
19919;SDS011;10122;50.074;19.920;2023-03-01T04:51:01;59.57;;;26.17;;
19919;SDS011;10122;50.074;19.920;2023-03-01T04:53:28;58.83;;;26.60;;
19919;SDS011;10122;50.074;19.920;2023-03-01T04:55:55;62.53;;;27.53;;
19919;SDS011;10122;50.074;19.920;2023-03-01T04:58:25;59.57;;;26.70;;
19919;SDS011;10122;50.074;19.920;2023-03-01T05:00:52;63.00;;;27.23;;
19919;SDS011;10122;50.074;19.920;2023-03-01T05:03:19;61.97;;;27.77;;
19919;SDS011;10122;50.074;19.920;2023-03-01T05:05:47;65.40;;;27.93;;
19919;SDS011;10122;50.074;19.920;2023-03-01T05:08:15;71.73;;;30.70;;
19919;SDS011;10122;50.074;19.920;2023-03-01T05:10:50;67.93;;;29.87;;
19919;SDS011;10122;50.074;19.920;2023-03-01T05:13:18;72.60;;;30.43;;
19919;SDS011;10122;50.074;19.920;2023-03-01T05:15:57;69.27;;;29.97;;
19919;SDS011;10122;50.074;19.920;2023-03-01T05:18:25;72.30;;;31.43;;
19919;SDS011;10122;50.074;19.920;2023-03-01T05:20:52;89.53;;;34.63;;
19919;SDS011;10122;50.074;19.920;2023-03-01T05:23:21;89.50;;;35.73;;
19919;SDS011;10122;50.074;19.920;2023-03-01T05:25:47;87.63;;;36.30;;
19919;SDS011;10122;50.074;19.920;2023-03-01T05:28:14;83.70;;;34.73;;
19919;SDS011;10122;50.074;19.920;2023-03-01T05:30:40;85.23;;;34.90;;
19919;SDS011;10122;50.074;19.920;2023-03-01T05:33:06;84.03;;;34.63;;
19919;SDS011;10122;50.074;19.920;2023-03-01T05:35:38;78.40;;;32.63;;
19919;SDS011;10122;50.074;19.920;2023-03-01T05:38:10;81.33;;;32.37;;
19919;SDS011;10122;50.074;19.920;2023-03-01T05:40:40;80.93;;;34.50;;
19919;SDS011;10122;50.074;19.920;2023-03-01T05:43:09;80.67;;;34.20;;
19919;SDS011;10122;50.074;19.920;2023-03-01T05:45:36;80.07;;;34.13;;
19919;SDS011;10122;50.074;19.920;2023-03-01T05:48:03;85.10;;;33.83;;
19919;SDS011;10122;50.074;19.920;2023-03-01T05:50:32;79.37;;;35.17;;
19919;SDS011;10122;50.074;19.920;2023-03-01T05:53:04;80.53;;;34.50;;
19919;SDS011;10122;50.074;19.920;2023-03-01T05:55:41;76.50;;;32.60;;
19919;SDS011;10122;50.074;19.920;2023-03-01T05:58:09;78.50;;;32.60;;
19919;SDS011;10122;50.074;19.920;2023-03-01T06:00:39;76.50;;;32.47;;
19919;SDS011;10122;50.074;19.920;2023-03-01T06:03:05;75.63;;;31.63;;
19919;SDS011;10122;50.074;19.920;2023-03-01T06:05:31;77.40;;;32.37;;
19919;SDS011;10122;50.074;19.920;2023-03-01T06:08:00;81.50;;;33.60;;
19919;SDS011;10122;50.074;19.920;2023-03-01T06:10:26;85.17;;;34.40;;
19919;SDS011;10122;50.074;19.920;2023-03-01T06:12:52;82.27;;;35.30;;
19919;SDS011;10122;50.074;19.920;2023-03-01T06:15:18;86.17;;;36.20;;
19919;SDS011;10122;50.074;19.920;2023-03-01T06:17:45;84.83;;;35.43;;
19919;SDS011;10122;50.074;19.920;2023-03-01T06:20:15;90.13;;;36.63;;
19919;SDS011;10122;50.074;19.920;2023-03-01T06:22:45;80.23;;;33.87;;
19919;SDS011;10122;50.074;19.920;2023-03-01T06:25:13;75.53;;;33.40;;
19919;SDS011;10122;50.074;19.920;2023-03-01T06:27:41;79.33;;;34.40;;
19919;SDS011;10122;50.074;19.920;2023-03-01T06:30:08;77.47;;;32.27;;
19919;SDS011;10122;50.074;19.920;2023-03-01T06:32:35;76.87;;;33.00;;
19919;SDS011;10122;50.074;19.920;2023-03-01T06:35:02;81.77;;;32.47;;
19919;SDS011;10122;50.074;19.920;2023-03-01T06:37:29;72.20;;;30.50;;
19919;SDS011;10122;50.074;19.920;2023-03-01T06:39:54;79.43;;;32.80;;
19919;SDS011;10122;50.074;19.920;2023-03-01T06:42:20;74.10;;;33.03;;
19919;SDS011;10122;50.074;19.920;2023-03-01T06:44:46;66.63;;;31.60;;
19919;SDS011;10122;50.074;19.920;2023-03-01T06:47:12;77.97;;;34.53;;
19919;SDS011;10122;50.074;19.920;2023-03-01T06:49:37;75.07;;;33.20;;
19919;SDS011;10122;50.074;19.920;2023-03-01T06:52:03;77.13;;;33.33;;
19919;SDS011;10122;50.074;19.920;2023-03-01T06:54:29;74.70;;;33.27;;
19919;SDS011;10122;50.074;19.920;2023-03-01T06:56:55;72.97;;;33.27;;
19919;SDS011;10122;50.074;19.920;2023-03-01T06:59:20;77.00;;;34.37;;
19919;SDS011;10122;50.074;19.920;2023-03-01T07:01:46;78.00;;;33.93;;
19919;SDS011;10122;50.074;19.920;2023-03-01T07:04:12;75.70;;;34.13;;
19919;SDS011;10122;50.074;19.920;2023-03-01T07:06:38;71.83;;;33.13;;
19919;SDS011;10122;50.074;19.920;2023-03-01T07:09:04;75.13;;;33.70;;
19919;SDS011;10122;50.074;19.920;2023-03-01T07:11:30;70.50;;;31.53;;
19919;SDS011;10122;50.074;19.920;2023-03-01T07:13:56;71.80;;;31.67;;
19919;SDS011;10122;50.074;19.920;2023-03-01T07:16:23;77.10;;;34.23;;
19919;SDS011;10122;50.074;19.920;2023-03-01T07:18:49;78.27;;;34.47;;
19919;SDS011;10122;50.074;19.920;2023-03-01T07:21:14;75.47;;;32.63;;
19919;SDS011;10122;50.074;19.920;2023-03-01T07:23:41;74.53;;;32.43;;
19919;SDS011;10122;50.074;19.920;2023-03-01T07:26:07;70.40;;;32.37;;
19919;SDS011;10122;50.074;19.920;2023-03-01T07:28:33;67.83;;;29.77;;
19919;SDS011;10122;50.074;19.920;2023-03-01T07:31:04;67.07;;;29.67;;
19919;SDS011;10122;50.074;19.920;2023-03-01T07:33:32;73.70;;;31.93;;
19919;SDS011;10122;50.074;19.920;2023-03-01T07:35:59;69.90;;;29.43;;
19919;SDS011;10122;50.074;19.920;2023-03-01T07:38:26;71.53;;;30.80;;
19919;SDS011;10122;50.074;19.920;2023-03-01T07:40:54;64.50;;;30.47;;
19919;SDS011;10122;50.074;19.920;2023-03-01T07:43:26;67.73;;;31.00;;
19919;SDS011;10122;50.074;19.920;2023-03-01T07:45:52;68.97;;;31.30;;
19919;SDS011;10122;50.074;19.920;2023-03-01T07:48:18;71.63;;;31.70;;
19919;SDS011;10122;50.074;19.920;2023-03-01T07:50:44;67.37;;;31.57;;
19919;SDS011;10122;50.074;19.920;2023-03-01T07:53:10;65.47;;;30.07;;
19919;SDS011;10122;50.074;19.920;2023-03-01T07:55:36;67.33;;;32.10;;
19919;SDS011;10122;50.074;19.920;2023-03-01T07:58:02;68.87;;;31.97;;
19919;SDS011;10122;50.074;19.920;2023-03-01T08:00:28;62.67;;;31.30;;
19919;SDS011;10122;50.074;19.920;2023-03-01T08:02:54;71.65;;;32.55;;
19919;SDS011;10122;50.074;19.920;2023-03-01T08:05:19;63.70;;;31.97;;
19919;SDS011;10122;50.074;19.920;2023-03-01T08:07:47;65.55;;;29.88;;
19919;SDS011;10122;50.074;19.920;2023-03-01T08:10:13;63.45;;;30.10;;
19919;SDS011;10122;50.074;19.920;2023-03-01T08:12:38;67.07;;;31.75;;
19919;SDS011;10122;50.074;19.920;2023-03-01T08:15:04;69.60;;;30.73;;
19919;SDS011;10122;50.074;19.920;2023-03-01T08:17:30;66.63;;;31.13;;
19919;SDS011;10122;50.074;19.920;2023-03-01T08:19:56;62.67;;;30.40;;
19919;SDS011;10122;50.074;19.920;2023-03-01T08:22:21;60.90;;;29.50;;
19919;SDS011;10122;50.074;19.920;2023-03-01T08:24:47;53.60;;;27.88;;
19919;SDS011;10122;50.074;19.920;2023-03-01T08:27:14;53.08;;;27.90;;
19919;SDS011;10122;50.074;19.920;2023-03-01T08:29:40;53.28;;;26.00;;
19919;SDS011;10122;50.074;19.920;2023-03-01T08:32:13;51.80;;;26.40;;
19919;SDS011;10122;50.074;19.920;2023-03-01T08:34:39;56.80;;;26.92;;
19919;SDS011;10122;50.074;19.920;2023-03-01T08:37:04;49.10;;;25.48;;
19919;SDS011;10122;50.074;19.920;2023-03-01T08:39:30;47.45;;;22.92;;
19919;SDS011;10122;50.074;19.920;2023-03-01T08:41:56;38.92;;;19.25;;
19919;SDS011;10122;50.074;19.920;2023-03-01T08:44:22;39.30;;;20.10;;
19919;SDS011;10122;50.074;19.920;2023-03-01T08:46:48;50.45;;;21.27;;
19919;SDS011;10122;50.074;19.920;2023-03-01T08:49:18;41.92;;;21.15;;
19919;SDS011;10122;50.074;19.920;2023-03-01T08:51:45;43.20;;;21.75;;
19919;SDS011;10122;50.074;19.920;2023-03-01T08:54:21;37.75;;;20.50;;
19919;SDS011;10122;50.074;19.920;2023-03-01T08:56:47;41.17;;;20.88;;
19919;SDS011;10122;50.074;19.920;2023-03-01T08:59:14;40.35;;;21.05;;
19919;SDS011;10122;50.074;19.920;2023-03-01T09:01:41;36.33;;;19.02;;
19919;SDS011;10122;50.074;19.920;2023-03-01T09:04:10;35.30;;;19.02;;
19919;SDS011;10122;50.074;19.920;2023-03-01T09:06:36;33.70;;;18.63;;
19919;SDS011;10122;50.074;19.920;2023-03-01T09:09:03;41.17;;;19.88;;
19919;SDS011;10122;50.074;19.920;2023-03-01T09:11:29;37.17;;;19.80;;
19919;SDS011;10122;50.074;19.920;2023-03-01T09:13:55;38.78;;;19.38;;
19919;SDS011;10122;50.074;19.920;2023-03-01T09:16:21;40.25;;;20.55;;
19919;SDS011;10122;50.074;19.920;2023-03-01T09:18:52;39.55;;;21.13;;
19919;SDS011;10122;50.074;19.920;2023-03-01T09:21:19;41.72;;;20.95;;
19919;SDS011;10122;50.074;19.920;2023-03-01T09:23:46;39.05;;;20.80;;
19919;SDS011;10122;50.074;19.920;2023-03-01T09:26:14;39.17;;;19.95;;
19919;SDS011;10122;50.074;19.920;2023-03-01T09:28:44;37.22;;;20.63;;
19919;SDS011;10122;50.074;19.920;2023-03-01T09:31:10;37.92;;;20.60;;
19919;SDS011;10122;50.074;19.920;2023-03-01T09:33:40;36.05;;;19.00;;
19919;SDS011;10122;50.074;19.920;2023-03-01T09:36:08;36.60;;;18.98;;
19919;SDS011;10122;50.074;19.920;2023-03-01T09:38:39;34.72;;;19.08;;
19919;SDS011;10122;50.074;19.920;2023-03-01T09:46:55;32.67;;;18.55;;
19919;SDS011;10122;50.074;19.920;2023-03-01T09:49:23;31.48;;;18.13;;
19919;SDS011;10122;50.074;19.920;2023-03-01T09:54:29;30.73;;;17.00;;
19919;SDS011;10122;50.074;19.920;2023-03-01T09:57:14;30.40;;;17.65;;
19919;SDS011;10122;50.074;19.920;2023-03-01T10:02:24;31.75;;;15.68;;
19919;SDS011;10122;50.074;19.920;2023-03-01T10:05:02;29.05;;;15.75;;
19919;SDS011;10122;50.074;19.920;2023-03-01T10:07:44;29.33;;;15.98;;
19919;SDS011;10122;50.074;19.920;2023-03-01T10:10:33;29.73;;;15.90;;
19919;SDS011;10122;50.074;19.920;2023-03-01T10:13:10;33.15;;;16.83;;
19919;SDS011;10122;50.074;19.920;2023-03-01T10:15:53;27.95;;;15.90;;
19919;SDS011;10122;50.074;19.920;2023-03-01T10:18:27;28.75;;;15.48;;
19919;SDS011;10122;50.074;19.920;2023-03-01T10:20:56;30.90;;;16.42;;
19919;SDS011;10122;50.074;19.920;2023-03-01T10:23:23;29.33;;;15.48;;
19919;SDS011;10122;50.074;19.920;2023-03-01T10:31:26;27.63;;;15.15;;
19919;SDS011;10122;50.074;19.920;2023-03-01T10:34:02;25.33;;;14.32;;
19919;SDS011;10122;50.074;19.920;2023-03-01T10:36:33;26.20;;;14.48;;
19919;SDS011;10122;50.074;19.920;2023-03-01T10:38:59;26.90;;;15.13;;
19919;SDS011;10122;50.074;19.920;2023-03-01T10:41:35;29.10;;;15.15;;
19919;SDS011;10122;50.074;19.920;2023-03-01T10:44:34;27.02;;;14.20;;
19919;SDS011;10122;50.074;19.920;2023-03-01T10:47:15;24.85;;;14.80;;
19919;SDS011;10122;50.074;19.920;2023-03-01T10:49:55;26.65;;;14.57;;
19919;SDS011;10122;50.074;19.920;2023-03-01T10:52:23;22.92;;;13.68;;
19919;SDS011;10122;50.074;19.920;2023-03-01T10:55:01;14.80;;;7.95;;
19919;SDS011;10122;50.074;19.920;2023-03-01T10:57:49;25.13;;;13.63;;
19919;SDS011;10122;50.074;19.920;2023-03-01T11:00:16;21.67;;;12.43;;
19919;SDS011;10122;50.074;19.920;2023-03-01T11:05:25;22.40;;;13.13;;
19919;SDS011;10122;50.074;19.920;2023-03-01T11:07:57;24.63;;;13.15;;
19919;SDS011;10122;50.074;19.920;2023-03-01T11:10:25;22.00;;;12.60;;
19919;SDS011;10122;50.074;19.920;2023-03-01T11:15:40;19.90;;;11.63;;
19919;SDS011;10122;50.074;19.920;2023-03-01T11:18:20;20.65;;;11.80;;
19919;SDS011;10122;50.074;19.920;2023-03-01T11:20:47;23.50;;;11.30;;
19919;SDS011;10122;50.074;19.920;2023-03-01T11:23:16;15.93;;;10.10;;
19919;SDS011;10122;50.074;19.920;2023-03-01T11:25:46;17.45;;;10.52;;
19919;SDS011;10122;50.074;19.920;2023-03-01T11:28:28;21.48;;;12.23;;
19919;SDS011;10122;50.074;19.920;2023-03-01T11:31:08;24.13;;;12.27;;
19919;SDS011;10122;50.074;19.920;2023-03-01T11:33:50;21.15;;;11.40;;
19919;SDS011;10122;50.074;19.920;2023-03-01T11:38:49;22.90;;;12.98;;
19919;SDS011;10122;50.074;19.920;2023-03-01T11:41:31;23.67;;;12.77;;
19919;SDS011;10122;50.074;19.920;2023-03-01T11:44:02;23.88;;;12.18;;
19919;SDS011;10122;50.074;19.920;2023-03-01T11:46:44;23.35;;;12.73;;
19919;SDS011;10122;50.074;19.920;2023-03-01T12:02:48;26.80;;;14.23;;
19919;SDS011;10122;50.074;19.920;2023-03-01T12:08:52;28.92;;;16.15;;
19919;SDS011;10122;50.074;19.920;2023-03-01T12:26:10;27.27;;;15.40;;
19919;SDS011;10122;50.074;19.920;2023-03-01T12:29:00;27.85;;;14.70;;
19919;SDS011;10122;50.074;19.920;2023-03-01T12:31:52;26.60;;;14.65;;
19919;SDS011;10122;50.074;19.920;2023-03-01T12:37:54;22.83;;;12.32;;
19919;SDS011;10122;50.074;19.920;2023-03-01T12:40:43;22.63;;;12.57;;
19919;SDS011;10122;50.074;19.920;2023-03-01T12:46:22;20.27;;;10.73;;
19919;SDS011;10122;50.074;19.920;2023-03-01T12:49:11;18.85;;;10.85;;
19919;SDS011;10122;50.074;19.920;2023-03-01T12:51:44;20.52;;;11.07;;
19919;SDS011;10122;50.074;19.920;2023-03-01T12:54:35;22.23;;;11.73;;
19919;SDS011;10122;50.074;19.920;2023-03-01T12:57:18;20.55;;;10.82;;
19919;SDS011;10122;50.074;19.920;2023-03-01T13:02:49;16.30;;;9.00;;
19919;SDS011;10122;50.074;19.920;2023-03-01T13:09:24;19.52;;;9.88;;
19919;SDS011;10122;50.074;19.920;2023-03-01T13:11:19;16.58;;;9.65;;
19919;SDS011;10122;50.074;19.920;2023-03-01T13:13:47;15.75;;;8.73;;
19919;SDS011;10122;50.074;19.920;2023-03-01T13:19:13;18.20;;;9.55;;
19919;SDS011;10122;50.074;19.920;2023-03-01T13:21:40;20.38;;;11.45;;
19919;SDS011;10122;50.074;19.920;2023-03-01T13:24:26;19.38;;;10.80;;
19919;SDS011;10122;50.074;19.920;2023-03-01T13:29:51;23.13;;;12.40;;
19919;SDS011;10122;50.074;19.920;2023-03-01T13:37:42;24.58;;;13.55;;
19919;SDS011;10122;50.074;19.920;2023-03-01T13:42:55;23.23;;;13.55;;
19919;SDS011;10122;50.074;19.920;2023-03-01T13:45:32;23.73;;;13.45;;
19919;SDS011;10122;50.074;19.920;2023-03-01T13:48:04;22.13;;;12.82;;
19919;SDS011;10122;50.074;19.920;2023-03-01T13:50:43;21.10;;;12.25;;
19919;SDS011;10122;50.074;19.920;2023-03-01T13:53:19;22.52;;;12.88;;
19919;SDS011;10122;50.074;19.920;2023-03-01T13:55:48;25.35;;;13.38;;
19919;SDS011;10122;50.074;19.920;2023-03-01T14:01:05;22.90;;;13.02;;
19919;SDS011;10122;50.074;19.920;2023-03-01T14:03:39;28.38;;;13.07;;
19919;SDS011;10122;50.074;19.920;2023-03-01T14:06:07;22.65;;;12.63;;
19919;SDS011;10122;50.074;19.920;2023-03-01T14:08:34;24.00;;;12.63;;
19919;SDS011;10122;50.074;19.920;2023-03-01T14:19:35;21.77;;;11.90;;
19919;SDS011;10122;50.074;19.920;2023-03-01T14:24:44;23.23;;;12.20;;
19919;SDS011;10122;50.074;19.920;2023-03-01T14:27:14;21.55;;;11.75;;
19919;SDS011;10122;50.074;19.920;2023-03-01T14:29:41;22.27;;;11.50;;
19919;SDS011;10122;50.074;19.920;2023-03-01T14:32:11;19.73;;;11.30;;
19919;SDS011;10122;50.074;19.920;2023-03-01T14:34:46;20.70;;;11.38;;
19919;SDS011;10122;50.074;19.920;2023-03-01T14:37:27;18.58;;;10.48;;
19919;SDS011;10122;50.074;19.920;2023-03-01T14:40:00;18.70;;;10.10;;
19919;SDS011;10122;50.074;19.920;2023-03-01T14:42:31;19.70;;;9.75;;
19919;SDS011;10122;50.074;19.920;2023-03-01T14:45:00;18.70;;;10.20;;
19919;SDS011;10122;50.074;19.920;2023-03-01T14:47:32;16.55;;;9.73;;
19919;SDS011;10122;50.074;19.920;2023-03-01T14:52:38;19.70;;;10.50;;
19919;SDS011;10122;50.074;19.920;2023-03-01T14:55:07;19.27;;;10.25;;
19919;SDS011;10122;50.074;19.920;2023-03-01T14:57:43;17.63;;;9.75;;
19919;SDS011;10122;50.074;19.920;2023-03-01T15:00:16;20.90;;;10.68;;
19919;SDS011;10122;50.074;19.920;2023-03-01T15:02:47;18.25;;;10.05;;
19919;SDS011;10122;50.074;19.920;2023-03-01T15:05:16;21.77;;;10.52;;
19919;SDS011;10122;50.074;19.920;2023-03-01T15:07:52;19.10;;;9.43;;
19919;SDS011;10122;50.074;19.920;2023-03-01T15:10:20;20.88;;;11.07;;
19919;SDS011;10122;50.074;19.920;2023-03-01T15:12:48;17.35;;;10.30;;
19919;SDS011;10122;50.074;19.920;2023-03-01T15:18:01;16.52;;;9.90;;
19919;SDS011;10122;50.074;19.920;2023-03-01T15:20:38;16.88;;;9.13;;
19919;SDS011;10122;50.074;19.920;2023-03-01T15:23:04;19.88;;;9.65;;
19919;SDS011;10122;50.074;19.920;2023-03-01T15:25:30;16.73;;;9.43;;
19919;SDS011;10122;50.074;19.920;2023-03-01T15:27:57;18.35;;;8.52;;
19919;SDS011;10122;50.074;19.920;2023-03-01T15:30:26;19.60;;;10.80;;
19919;SDS011;10122;50.074;19.920;2023-03-01T15:35:50;19.17;;;10.93;;
19919;SDS011;10122;50.074;19.920;2023-03-01T15:40:52;17.60;;;10.20;;
19919;SDS011;10122;50.074;19.920;2023-03-01T15:43:38;18.80;;;9.95;;
19919;SDS011;10122;50.074;19.920;2023-03-01T15:46:25;20.05;;;10.20;;
19919;SDS011;10122;50.074;19.920;2023-03-01T15:49:00;20.88;;;9.55;;
19919;SDS011;10122;50.074;19.920;2023-03-01T15:51:36;21.95;;;9.60;;
19919;SDS011;10122;50.074;19.920;2023-03-01T15:54:06;17.70;;;9.52;;
19919;SDS011;10122;50.074;19.920;2023-03-01T15:56:46;19.98;;;9.63;;
19919;SDS011;10122;50.074;19.920;2023-03-01T15:59:12;16.92;;;9.02;;
19919;SDS011;10122;50.074;19.920;2023-03-01T16:01:39;17.73;;;8.73;;
19919;SDS011;10122;50.074;19.920;2023-03-01T16:04:05;15.93;;;9.15;;
19919;SDS011;10122;50.074;19.920;2023-03-01T16:06:31;15.93;;;8.68;;
19919;SDS011;10122;50.074;19.920;2023-03-01T16:08:57;16.08;;;9.05;;
19919;SDS011;10122;50.074;19.920;2023-03-01T16:11:23;19.48;;;9.32;;
19919;SDS011;10122;50.074;19.920;2023-03-01T16:13:48;17.73;;;9.48;;
19919;SDS011;10122;50.074;19.920;2023-03-01T16:16:15;16.02;;;9.00;;
19919;SDS011;10122;50.074;19.920;2023-03-01T16:18:45;18.73;;;9.52;;
19919;SDS011;10122;50.074;19.920;2023-03-01T16:21:45;18.63;;;9.23;;